SBOSBO OSL / ENGM
Speedbird OnlineSpeedbird Online OSL / ENGM

Oslo Lufthavn
21:19 5.3°C

Location Oslo, Norway
Latitude: 60.121
Longitude: 11.0502
Local Time 21:19 on 20 Apr 2024
UTC +2 hours (Europe/Oslo)
Currency £1 equals NOK 13.63
METAR ENGM 201850Z 36010KT CAVOK 05/M05 Q1020 NOSIG
TAF TAF ENGM 201700Z 2018/2118 01015KT CAVOK BECMG 2020/2022 01005KT
Weather As Of 20 Apr 2024 21:19
Description Clear sky
Wind 19 km/h from North (360°)
Cloud Cover 0%
Precipitation Rain: none, Snow: none
Sunrise 05:42
Sunset 20:45
NOTAM 9 active NOTAM
Rotations During the last 90 days there were
247 flights from LHR
4 flights from OSL
238 flights to LHR
4 flights to OSL
Lounges OSL Lounge , Main terminal
Web Airport Website | Wikipedia
Codes IATA: OSL
ICAO: ENGM
Altitude 208 Meter / 681 Feet
Distance 1,173 KM / 729 Miles
from London.
Runways
RunwayLength (m)Surface
01L3600Asphalt
01R2950Asphalt
19L2950Asphalt
19R3600Asphalt
Radio
TypeDescriptionFrequency
APPAPP119.975
ATISATIS126.125
CLDCLNC DEL121.6
DIRDIRECTOR131.35
GNDGND121.925
MISCDE ICING131.975
OPSWINGOPS29.38
PMSVPMSV METRO134.175
TWRTWR118.3
Live ATC



Support Speedbird Online

© 2017-2024 Speedbird Online